createdAt,value
2023-02-12T00:01:28.621Z,23.60
2023-02-12T00:03:56.082Z,20.50
2023-02-12T00:06:23.781Z,21.70
2023-02-12T00:08:52.029Z,20.10
2023-02-12T00:11:21.097Z,19.87
2023-02-12T00:13:48.623Z,21.90
2023-02-12T00:16:17.563Z,23.63
2023-02-12T00:18:45.463Z,21.60
2023-02-12T00:21:14.149Z,29.13
2023-02-12T00:23:41.847Z,36.87
2023-02-12T00:26:10.294Z,29.60
2023-02-12T00:28:37.630Z,37.33
2023-02-12T00:31:08.831Z,39.87
2023-02-12T00:33:36.364Z,30.90
2023-02-12T00:36:03.786Z,36.60
2023-02-12T00:38:31.147Z,26.67
2023-02-12T00:40:58.322Z,29.50
2023-02-12T00:43:25.627Z,23.73
2023-02-12T00:45:53.136Z,27.53
2023-02-12T00:48:20.486Z,22.33
2023-02-12T00:50:49.292Z,22.13
2023-02-12T00:53:17.165Z,19.93
2023-02-12T00:55:44.411Z,25.10
2023-02-12T00:58:12.298Z,25.20
2023-02-12T01:00:39.759Z,30.70
2023-02-12T01:03:07.293Z,16.53
2023-02-12T01:05:34.540Z,19.17
2023-02-12T01:08:01.824Z,26.87
2023-02-12T01:10:31.960Z,31.90
2023-02-12T01:12:59.538Z,43.23
2023-02-12T01:15:28.037Z,34.77
2023-02-12T01:17:55.477Z,34.03
2023-02-12T01:20:23.770Z,29.13
2023-02-12T01:22:51.646Z,29.07
2023-02-12T01:25:20.622Z,26.47
2023-02-12T01:27:48.271Z,25.57
2023-02-12T01:30:16.120Z,21.10
2023-02-12T01:32:44.108Z,28.70
2023-02-12T01:35:11.839Z,23.87
2023-02-12T01:37:39.556Z,24.50
2023-02-12T01:40:08.122Z,29.10
2023-02-12T01:42:35.760Z,25.30
2023-02-12T01:45:12.257Z,19.13
2023-02-12T01:47:40.390Z,25.10
2023-02-12T01:50:08.451Z,22.90
2023-02-12T01:52:37.180Z,24.87
2023-02-12T01:55:06.323Z,28.07
2023-02-12T01:57:36.488Z,17.13
2023-02-12T02:00:07.381Z,23.33
2023-02-12T02:02:35.252Z,21.80
2023-02-12T02:05:04.366Z,28.03
2023-02-12T02:07:32.488Z,27.53
2023-02-12T02:10:00.597Z,27.10
2023-02-12T02:12:46.925Z,22.73
2023-02-12T02:15:14.195Z,24.37
2023-02-12T02:18:00.127Z,25.23
2023-02-12T02:20:46.188Z,24.87
2023-02-12T02:23:28.669Z,22.67
2023-02-12T02:26:14.198Z,27.77
2023-02-12T02:28:41.399Z,35.83
2023-02-12T02:31:08.873Z,18.13
2023-02-12T02:33:42.840Z,24.80
2023-02-12T02:36:13.044Z,26.17
2023-02-12T02:38:51.008Z,19.67
2023-02-12T02:41:22.702Z,22.90
2023-02-12T02:43:51.472Z,25.57
2023-02-12T02:46:21.642Z,22.03
2023-02-12T02:48:54.358Z,22.87
2023-02-12T02:51:24.812Z,27.97
2023-02-12T02:54:14.469Z,24.87
2023-02-12T02:56:43.258Z,28.90
2023-02-12T02:59:15.534Z,24.50
2023-02-12T03:02:00.946Z,23.37
2023-02-12T03:04:32.585Z,25.83
2023-02-12T03:07:18.605Z,19.23
2023-02-12T03:09:48.045Z,22.90
2023-02-12T03:12:17.452Z,21.90
2023-02-12T03:14:51.273Z,27.47
2023-02-12T03:17:24.545Z,39.63
2023-02-12T03:20:01.444Z,33.03
2023-02-12T03:22:31.834Z,32.10
2023-02-12T03:25:09.751Z,25.87
2023-02-12T03:27:41.465Z,27.73
2023-02-12T03:30:09.396Z,28.37
2023-02-12T03:32:55.503Z,26.27
2023-02-12T03:35:26.073Z,30.23
2023-02-12T03:38:09.916Z,30.60
2023-02-12T03:40:47.900Z,31.83
2023-02-12T03:43:17.831Z,28.70
2023-02-12T03:45:53.449Z,33.50
2023-02-12T03:48:36.170Z,22.00
2023-02-12T03:51:25.074Z,22.57
2023-02-12T03:53:52.605Z,25.97
2023-02-12T03:56:48.586Z,28.37
2023-02-12T03:59:15.963Z,28.90
2023-02-12T04:01:43.432Z,35.70
2023-02-12T04:04:11.126Z,29.93
2023-02-12T04:06:38.635Z,37.83
2023-02-12T04:09:08.142Z,71.30
2023-02-12T04:11:35.357Z,50.73
2023-02-12T04:14:02.613Z,48.63
2023-02-12T04:16:32.912Z,56.83
2023-02-12T04:19:00.425Z,29.57
2023-02-12T04:21:46.005Z,28.00
2023-02-12T04:24:20.072Z,32.03
2023-02-12T04:26:53.571Z,33.50
2023-02-12T04:29:32.813Z,22.83
2023-02-12T04:32:02.886Z,25.83
2023-02-12T04:34:42.381Z,28.47
2023-02-12T04:37:18.754Z,23.77
2023-02-12T04:39:46.715Z,34.07
2023-02-12T04:42:13.885Z,33.93
2023-02-12T04:44:42.596Z,53.13
2023-02-12T04:47:12.356Z,59.30
2023-02-12T04:49:39.700Z,43.43
2023-02-12T04:52:06.934Z,38.10
2023-02-12T04:54:34.177Z,36.57
2023-02-12T04:57:01.558Z,35.30
2023-02-12T04:59:29.320Z,29.30
2023-02-12T05:01:56.545Z,25.87
2023-02-12T05:04:23.725Z,24.90
2023-02-12T05:06:50.922Z,29.37
2023-02-12T05:09:19.695Z,17.17
2023-02-12T05:11:47.057Z,33.07
2023-02-12T05:14:14.280Z,30.37
2023-02-12T05:16:41.503Z,18.70
2023-02-12T05:19:09.743Z,23.20
2023-02-12T05:21:38.048Z,21.73
2023-02-12T05:24:05.406Z,22.67
2023-02-12T05:26:32.612Z,26.43
2023-02-12T05:28:59.790Z,27.43
2023-02-12T05:31:27.402Z,35.40
2023-02-12T05:33:54.729Z,37.53
2023-02-12T05:36:23.238Z,43.67
2023-02-12T05:38:50.835Z,38.73
2023-02-12T05:41:19.572Z,39.47
2023-02-12T05:43:49.546Z,31.63
2023-02-12T05:46:17.217Z,36.93
2023-02-12T05:48:44.611Z,27.77
2023-02-12T05:51:16.629Z,40.70
2023-02-12T05:53:43.945Z,40.10
2023-02-12T05:56:18.380Z,29.67
2023-02-12T05:58:48.598Z,27.40
2023-02-12T06:01:17.330Z,39.33
2023-02-12T06:03:44.793Z,53.57
2023-02-12T06:06:12.098Z,31.67
2023-02-12T06:08:39.900Z,29.17
2023-02-12T06:11:08.166Z,28.03
2023-02-12T06:13:35.419Z,34.07
2023-02-12T06:16:03.070Z,34.13
2023-02-12T06:18:30.677Z,38.43
2023-02-12T06:20:58.286Z,43.97
2023-02-12T06:23:25.742Z,30.53
2023-02-12T06:25:57.392Z,43.60
2023-02-12T06:28:25.060Z,38.70
2023-02-12T06:30:52.371Z,35.60
2023-02-12T06:33:19.663Z,33.07
2023-02-12T06:35:46.848Z,39.10
2023-02-12T06:38:14.818Z,43.40
2023-02-12T06:40:42.197Z,44.80
2023-02-12T06:43:09.478Z,45.17
2023-02-12T06:45:36.680Z,37.17
2023-02-12T06:48:04.086Z,53.00
2023-02-12T06:50:31.429Z,53.23
2023-02-12T06:52:59.758Z,59.63
2023-02-12T06:55:26.963Z,40.03
2023-02-12T06:57:54.324Z,53.47
2023-02-12T07:00:21.852Z,36.30
2023-02-12T07:02:56.077Z,49.53
2023-02-12T07:05:24.089Z,45.37
2023-02-12T07:07:51.459Z,67.97
2023-02-12T07:10:19.544Z,80.20
2023-02-12T07:12:46.821Z,69.23
2023-02-12T07:15:14.090Z,69.97
2023-02-12T07:17:41.352Z,67.50
2023-02-12T07:20:08.857Z,62.53
2023-02-12T07:22:39.297Z,38.53
2023-02-12T07:25:06.780Z,53.40
2023-02-12T07:27:36.847Z,86.67
2023-02-12T07:30:04.862Z,69.30
2023-02-12T07:32:35.177Z,65.70
2023-02-12T07:35:02.469Z,63.27
2023-02-12T07:37:29.784Z,66.67
2023-02-12T07:39:57.181Z,64.80
2023-02-12T07:42:24.414Z,55.70
2023-02-12T07:44:51.680Z,60.80
2023-02-12T07:47:18.962Z,59.87
2023-02-12T07:49:46.299Z,60.63
2023-02-12T07:52:13.621Z,59.63
2023-02-12T07:54:40.882Z,57.47
2023-02-12T07:57:08.119Z,56.20
2023-02-12T07:59:35.326Z,45.57
2023-02-12T08:02:02.632Z,52.20
2023-02-12T08:04:29.996Z,48.33
2023-02-12T08:06:57.738Z,43.23
2023-02-12T08:09:26.614Z,41.37
2023-02-12T08:11:54.167Z,50.33
2023-02-12T08:14:22.096Z,59.80
2023-02-12T08:16:49.904Z,48.20
2023-02-12T08:19:21.723Z,40.43
2023-02-12T08:21:51.860Z,48.03
2023-02-12T08:24:19.119Z,35.63
2023-02-12T08:26:46.360Z,32.10
2023-02-12T08:29:14.867Z,39.10
2023-02-12T08:31:43.535Z,31.70
2023-02-12T08:34:21.050Z,32.40
2023-02-12T08:36:49.240Z,34.63
2023-02-12T08:39:17.286Z,34.67
2023-02-12T08:41:44.835Z,37.73
2023-02-12T08:44:12.654Z,30.57
2023-02-12T08:46:41.565Z,26.83
2023-02-12T08:49:12.143Z,26.33
2023-02-12T08:51:40.822Z,41.10
2023-02-12T08:54:09.146Z,47.63
2023-02-12T08:56:36.456Z,50.17
2023-02-12T08:59:05.286Z,40.00
2023-02-12T09:01:33.490Z,32.07
2023-02-12T09:04:00.840Z,30.10
2023-02-12T09:06:28.353Z,25.07
2023-02-12T09:08:55.618Z,26.43
2023-02-12T09:11:26.697Z,26.07
2023-02-12T09:13:54.050Z,26.87
2023-02-12T09:16:21.274Z,27.07
2023-02-12T09:18:48.521Z,35.13
2023-02-12T09:21:16.860Z,30.87
2023-02-12T09:23:44.911Z,30.23
2023-02-12T09:26:17.376Z,30.63
2023-02-12T09:28:44.730Z,34.37
2023-02-12T09:31:14.115Z,29.17
2023-02-12T09:33:41.879Z,25.10
2023-02-12T09:36:10.474Z,25.33
2023-02-12T09:38:38.053Z,23.20
2023-02-12T09:41:24.156Z,23.33
2023-02-12T09:43:57.307Z,24.93
2023-02-12T09:46:47.763Z,22.33
2023-02-12T09:49:21.298Z,19.13
2023-02-12T09:51:53.862Z,22.40
2023-02-12T09:54:26.626Z,19.10
2023-02-12T09:56:56.138Z,21.10
2023-02-12T09:59:44.148Z,19.03
2023-02-12T10:02:18.289Z,24.10
2023-02-12T10:05:00.340Z,24.47
2023-02-12T10:07:41.627Z,22.73
2023-02-12T10:10:08.894Z,23.30
2023-02-12T10:12:53.874Z,25.90
2023-02-12T10:15:42.528Z,26.53
2023-02-12T10:18:18.471Z,24.87
2023-02-12T10:20:53.284Z,33.63
2023-02-12T10:23:32.688Z,29.03
2023-02-12T10:26:22.373Z,27.83
2023-02-12T10:28:50.327Z,28.50
2023-02-12T10:31:23.500Z,23.97
2023-02-12T10:33:51.447Z,30.53
2023-02-12T10:36:33.955Z,24.47
2023-02-12T10:39:10.242Z,33.03
2023-02-12T10:41:39.847Z,26.00
2023-02-12T10:44:08.578Z,32.17
2023-02-12T10:46:35.874Z,27.97
2023-02-12T10:49:03.420Z,23.13
2023-02-12T10:51:38.892Z,25.27
2023-02-12T10:54:24.632Z,23.93
2023-02-12T10:56:52.010Z,18.60
2023-02-12T10:59:25.328Z,19.37
2023-02-12T11:01:53.984Z,24.30
2023-02-12T11:04:25.278Z,22.43
2023-02-12T11:07:04.167Z,20.83
2023-02-12T11:09:35.197Z,22.83
2023-02-12T11:12:02.714Z,19.20
2023-02-12T11:14:30.194Z,17.23
2023-02-12T11:16:58.446Z,17.93
2023-02-12T11:19:27.490Z,13.97
2023-02-12T11:22:05.313Z,19.50
2023-02-12T11:24:34.086Z,15.77
2023-02-12T11:27:12.998Z,17.53
2023-02-12T11:29:40.596Z,13.57
2023-02-12T11:32:09.146Z,14.70
2023-02-12T11:34:37.027Z,16.97
2023-02-12T11:37:05.216Z,22.57
2023-02-12T11:39:35.404Z,18.27
2023-02-12T11:42:05.824Z,19.23
2023-02-12T11:44:36.189Z,26.63
2023-02-12T11:47:09.566Z,24.67
2023-02-12T11:49:44.482Z,29.70
2023-02-12T11:52:32.035Z,24.13
2023-02-12T11:55:01.208Z,25.13
2023-02-12T11:57:47.754Z,20.97
2023-02-12T12:00:20.684Z,23.67
2023-02-12T12:02:57.200Z,29.57
2023-02-12T12:05:26.854Z,34.80
2023-02-12T12:07:57.300Z,32.90
2023-02-12T12:10:48.051Z,21.03
2023-02-12T12:13:25.046Z,24.10
2023-02-12T12:16:24.222Z,23.43
2023-02-12T12:19:14.099Z,23.10
2023-02-12T12:21:56.609Z,23.37
2023-02-12T12:24:32.908Z,20.37
2023-02-12T12:27:04.524Z,22.63
2023-02-12T12:29:43.014Z,22.70
2023-02-12T12:32:12.768Z,20.90
2023-02-12T12:34:40.043Z,21.20
2023-02-12T12:37:28.195Z,19.17
2023-02-12T12:40:05.510Z,27.13
2023-02-12T12:42:51.354Z,23.80
2023-02-12T12:45:24.600Z,21.43
2023-02-12T12:48:01.206Z,28.17
2023-02-12T12:50:47.074Z,23.23
2023-02-12T12:53:39.842Z,27.17
2023-02-12T12:56:33.747Z,18.37
2023-02-12T12:59:19.866Z,21.73
2023-02-12T13:02:05.864Z,25.17
2023-02-12T13:04:33.050Z,29.97
2023-02-12T13:07:20.502Z,23.20
2023-02-12T13:10:04.903Z,23.73
2023-02-12T13:12:45.872Z,30.80
2023-02-12T13:15:29.588Z,20.13
2023-02-12T13:18:08.436Z,23.43
2023-02-12T13:20:41.120Z,33.37
2023-02-12T13:23:21.689Z,23.47
2023-02-12T13:25:53.295Z,23.33
2023-02-12T13:28:26.958Z,18.87
2023-02-12T13:30:54.789Z,22.90
2023-02-12T13:33:29.815Z,25.73
2023-02-12T13:36:01.013Z,24.13
2023-02-12T13:38:31.971Z,31.23
2023-02-12T13:41:00.887Z,24.23
2023-02-12T13:43:43.133Z,34.33
2023-02-12T13:46:10.379Z,27.43
2023-02-12T13:48:56.360Z,30.57
2023-02-12T13:51:26.673Z,31.37
2023-02-12T13:53:59.825Z,28.33
2023-02-12T13:56:29.761Z,29.27
2023-02-12T13:59:00.456Z,30.97
2023-02-12T14:01:47.484Z,31.23
2023-02-12T14:04:27.261Z,24.87
2023-02-12T14:07:06.664Z,22.40
2023-02-12T14:09:45.376Z,26.90
2023-02-12T14:12:15.880Z,38.03
2023-02-12T14:14:54.011Z,35.13
2023-02-12T14:17:32.939Z,37.80
2023-02-12T14:20:22.184Z,29.13
2023-02-12T14:22:49.590Z,28.37
2023-02-12T14:25:26.028Z,27.63
2023-02-12T14:28:00.396Z,21.57
2023-02-12T14:30:30.824Z,20.63
2023-02-12T14:32:59.588Z,17.93
2023-02-12T14:35:29.485Z,16.80
2023-02-12T14:37:57.885Z,17.00
2023-02-12T14:40:51.358Z,19.43
2023-02-12T14:43:32.776Z,15.97
2023-02-12T14:46:20.270Z,16.40
2023-02-12T14:48:58.097Z,14.53
2023-02-12T14:51:47.862Z,14.73
2023-02-12T14:54:17.160Z,16.93
2023-02-12T14:56:47.593Z,16.57
2023-02-12T14:59:20.693Z,20.23
2023-02-12T15:01:48.942Z,17.17
2023-02-12T15:04:26.257Z,18.63
2023-02-12T15:06:59.507Z,15.87
2023-02-12T15:09:46.923Z,14.70
2023-02-12T15:12:46.626Z,15.73
2023-02-12T15:15:16.720Z,16.90
2023-02-12T15:17:56.036Z,18.53
2023-02-12T15:20:25.169Z,16.30
2023-02-12T15:22:52.347Z,13.10
2023-02-12T15:25:27.375Z,15.87
2023-02-12T15:28:13.506Z,14.07
2023-02-12T15:30:43.305Z,17.03
2023-02-12T15:33:10.559Z,25.70
2023-02-12T15:35:40.260Z,18.43
2023-02-12T15:38:08.199Z,20.80
2023-02-12T15:40:35.556Z,13.80
2023-02-12T15:43:04.262Z,16.67
2023-02-12T15:45:34.005Z,13.73
2023-02-12T15:48:01.234Z,18.97
2023-02-12T15:50:29.181Z,16.70
2023-02-12T15:52:56.879Z,18.27
2023-02-12T15:55:26.996Z,19.97
2023-02-12T15:57:58.929Z,17.40
2023-02-12T16:00:28.896Z,17.60
2023-02-12T16:02:56.265Z,22.80
2023-02-12T16:05:23.828Z,24.47
2023-02-12T16:07:51.334Z,20.40
2023-02-12T16:10:19.927Z,16.17
2023-02-12T16:12:48.034Z,29.00
2023-02-12T16:15:24.520Z,26.40
2023-02-12T16:17:51.762Z,24.97
2023-02-12T16:20:19.050Z,19.43
2023-02-12T16:22:47.634Z,18.83
2023-02-12T16:25:17.260Z,18.23
2023-02-12T16:27:52.840Z,21.77
2023-02-12T16:30:42.772Z,22.60
2023-02-12T16:33:28.863Z,24.87
2023-02-12T16:36:06.738Z,21.57
2023-02-12T16:38:43.529Z,21.30
2023-02-12T16:41:16.796Z,25.17
2023-02-12T16:43:44.022Z,25.03
2023-02-12T16:46:12.438Z,41.00
2023-02-12T16:48:44.009Z,38.47
2023-02-12T16:51:30.645Z,26.57
2023-02-12T16:53:59.009Z,21.93
2023-02-12T16:56:27.946Z,26.67
2023-02-12T16:58:57.701Z,23.70
2023-02-12T17:01:26.341Z,25.57
2023-02-12T17:03:54.368Z,25.07
2023-02-12T17:06:22.960Z,28.57
2023-02-12T17:08:50.528Z,46.57
2023-02-12T17:11:18.110Z,36.10
2023-02-12T17:13:49.744Z,40.23
2023-02-12T17:16:29.775Z,35.10
2023-02-12T17:18:57.828Z,23.00
2023-02-12T17:21:26.430Z,25.17
2023-02-12T17:23:56.480Z,26.50
2023-02-12T17:26:24.147Z,27.00
2023-02-12T17:28:51.369Z,36.10
2023-02-12T17:31:20.798Z,42.43
2023-02-12T17:33:49.193Z,48.03
2023-02-12T17:36:16.406Z,41.07
2023-02-12T17:38:43.796Z,42.63
2023-02-12T17:41:11.748Z,37.43
2023-02-12T17:43:38.948Z,31.70
2023-02-12T17:46:13.032Z,42.63
2023-02-12T17:48:40.679Z,39.00
2023-02-12T17:51:09.673Z,34.50
2023-02-12T17:53:36.887Z,38.33
2023-02-12T17:56:04.457Z,29.87
2023-02-12T17:58:31.698Z,40.03
2023-02-12T18:01:04.549Z,36.17
2023-02-12T18:03:32.224Z,32.77
2023-02-12T18:05:59.501Z,39.80
2023-02-12T18:08:26.908Z,36.00
2023-02-12T18:10:54.496Z,33.00
2023-02-12T18:13:21.866Z,35.40
2023-02-12T18:15:49.074Z,30.10
2023-02-12T18:18:17.962Z,36.03
2023-02-12T18:20:45.228Z,34.73
2023-02-12T18:23:12.457Z,29.80
2023-02-12T18:25:43.059Z,30.77
2023-02-12T18:28:10.901Z,33.80
2023-02-12T18:30:39.098Z,32.57
2023-02-12T18:33:06.946Z,31.07
2023-02-12T18:35:34.621Z,30.03
2023-02-12T18:38:02.270Z,28.30
2023-02-12T18:40:29.683Z,37.60
2023-02-12T18:42:57.029Z,30.77
2023-02-12T18:45:24.198Z,28.00
2023-02-12T18:47:51.525Z,26.93
2023-02-12T18:50:18.748Z,31.60
2023-02-12T18:52:46.014Z,23.87
2023-02-12T18:55:13.274Z,25.73
2023-02-12T18:57:40.502Z,24.00
2023-02-12T19:00:08.073Z,28.87
2023-02-12T19:02:35.291Z,31.77
2023-02-12T19:05:02.503Z,31.83
2023-02-12T19:07:29.671Z,27.67
2023-02-12T19:09:56.949Z,32.03
2023-02-12T19:12:26.028Z,27.47
2023-02-12T19:14:53.351Z,27.37
2023-02-12T19:17:20.728Z,31.37
2023-02-12T19:19:50.514Z,31.43
2023-02-12T19:22:18.259Z,27.23
2023-02-12T19:24:47.160Z,27.87
2023-02-12T19:27:14.650Z,26.67
2023-02-12T19:29:41.819Z,37.73
2023-02-12T19:32:09.213Z,34.70
2023-02-12T19:34:36.458Z,29.23
2023-02-12T19:37:03.658Z,35.13
2023-02-12T19:39:30.825Z,24.90
2023-02-12T19:41:58.111Z,24.67
2023-02-12T19:44:26.184Z,26.40
2023-02-12T19:46:54.985Z,30.73
2023-02-12T19:49:24.265Z,27.77
2023-02-12T19:51:51.765Z,30.40
2023-02-12T19:54:19.792Z,28.47
2023-02-12T19:56:47.311Z,37.37
2023-02-12T19:59:15.547Z,29.13
2023-02-12T20:01:43.880Z,39.00
2023-02-12T20:04:14.305Z,27.50
2023-02-12T20:06:42.431Z,29.80
2023-02-12T20:09:11.352Z,34.63
2023-02-12T20:11:39.302Z,30.27
2023-02-12T20:14:07.648Z,33.93
2023-02-12T20:16:38.332Z,35.83
2023-02-12T20:19:13.333Z,34.13
2023-02-12T20:21:41.076Z,32.43
2023-02-12T20:24:08.354Z,34.13
2023-02-12T20:26:36.061Z,38.13
2023-02-12T20:29:05.531Z,37.20
2023-02-12T20:31:34.940Z,33.43
2023-02-12T20:34:03.541Z,36.73
2023-02-12T20:36:32.322Z,43.83
2023-02-12T20:38:59.932Z,41.67
2023-02-12T20:41:28.237Z,33.43
2023-02-12T20:43:55.908Z,33.50
2023-02-12T20:46:25.251Z,31.53
2023-02-12T20:48:54.206Z,31.33
2023-02-12T20:51:22.797Z,30.63
2023-02-12T20:53:50.394Z,32.80
2023-02-12T20:56:21.440Z,37.70
2023-02-12T20:58:48.842Z,37.80
2023-02-12T21:01:21.548Z,39.10
2023-02-12T21:03:49.643Z,28.73
2023-02-12T21:06:16.853Z,29.50
2023-02-12T21:08:44.320Z,36.03
2023-02-12T21:11:14.831Z,26.73
2023-02-12T21:13:58.594Z,31.43
2023-02-12T21:16:33.862Z,30.50
2023-02-12T21:19:01.459Z,29.33
2023-02-12T21:21:29.810Z,36.67
2023-02-12T21:23:57.720Z,34.93
2023-02-12T21:26:26.253Z,35.50
2023-02-12T21:28:53.640Z,29.73
2023-02-12T21:31:21.960Z,36.17
2023-02-12T21:33:50.403Z,32.07
2023-02-12T21:36:19.892Z,29.47
2023-02-12T21:38:48.266Z,35.13
2023-02-12T21:41:16.836Z,27.07
2023-02-12T21:43:45.370Z,31.17
2023-02-12T21:46:12.958Z,27.33
2023-02-12T21:48:40.249Z,24.70
2023-02-12T21:51:08.104Z,27.87
2023-02-12T21:53:35.326Z,30.63
2023-02-12T21:56:03.439Z,29.33
2023-02-12T21:58:30.735Z,30.27
2023-02-12T22:00:58.205Z,26.13
2023-02-12T22:03:25.585Z,28.67
2023-02-12T22:05:52.798Z,23.50
2023-02-12T22:08:19.974Z,27.70
2023-02-12T22:10:47.246Z,26.80
2023-02-12T22:13:14.513Z,25.20
2023-02-12T22:15:42.792Z,24.73
2023-02-12T22:18:10.101Z,23.93
2023-02-12T22:20:37.313Z,23.53
2023-02-12T22:23:04.775Z,18.70
2023-02-12T22:25:33.391Z,19.97
2023-02-12T22:28:01.426Z,19.83
2023-02-12T22:30:28.696Z,17.93
2023-02-12T22:32:55.930Z,14.70
2023-02-12T22:35:23.095Z,22.37
2023-02-12T22:37:50.299Z,18.27
2023-02-12T22:40:17.584Z,16.73
2023-02-12T22:42:44.777Z,18.53
2023-02-12T22:45:11.987Z,19.93
2023-02-12T22:47:39.183Z,16.33
2023-02-12T22:50:06.783Z,18.60
2023-02-12T22:52:33.969Z,19.97
2023-02-12T22:55:01.138Z,16.50
2023-02-12T22:57:28.366Z,18.50
2023-02-12T22:59:55.697Z,13.37
2023-02-12T23:02:22.905Z,17.87
2023-02-12T23:04:50.105Z,16.33
2023-02-12T23:07:17.276Z,17.63
2023-02-12T23:09:44.460Z,18.10
2023-02-12T23:12:12.070Z,16.37
2023-02-12T23:14:39.513Z,14.67
2023-02-12T23:17:06.764Z,21.47
2023-02-12T23:19:33.944Z,18.00
2023-02-12T23:22:01.717Z,18.77
2023-02-12T23:24:28.980Z,18.80
2023-02-12T23:26:56.251Z,20.23
2023-02-12T23:29:23.504Z,16.70
2023-02-12T23:31:50.773Z,15.97
2023-02-12T23:34:18.118Z,19.20
2023-02-12T23:36:45.341Z,16.03
2023-02-12T23:39:13.295Z,14.87
2023-02-12T23:41:40.929Z,22.97
2023-02-12T23:44:08.149Z,14.43
2023-02-12T23:46:35.414Z,16.77
2023-02-12T23:49:03.670Z,15.70
2023-02-12T23:51:32.777Z,18.70
2023-02-12T23:53:59.946Z,13.13
2023-02-12T23:56:27.262Z,13.00
2023-02-12T23:58:57.323Z,15.70
